Angler Guide Weather for Hamilton -
Hamilton, Ontario Current Weather Conditions
Enter your "Place, State", US Zip Code or ICAO:  
Forecast Information Radar Information
Hamilton, Ontario, Canada  Lat: 43.17N, Lon: 79.93W
ICAO Used: CYKF
Current Conditions
Updated:
Sun & Moon Information:
Temp: N/A
Humidity: N/A
Wind Speed: N/A
Barometer: N/A
Dewpoint: N/A
Heat Index: N/A
Wind Chill: N/A
Civil Twilight: 7:06 AM EDT
Moonrise: 6:11 AM EDT Moon Phase:
Waning Crescent Moon
Waning Crescent Moon
Moonset: 6:23 PM EDT
Sunrise: 7:35 AM EDT
Sunset: 6:32 PM EDT
Civil Twilight: 7:01 PM EDT
Forecast for Hamilton, ON:
(Forecast based on TAF for )
0339 PM EDT MON NOV 06 2006
  
AFTERNOONEVENINGOVERNIGHT
PARTLY CLOUDYPARTLY CLOUDYPARTLY CLOUDY
Partly
Cloudy
Partly
Cloudy
Partly
Cloudy
TAF based forecast:
Dated: 0339 PM EDT MON NOV 06 2006
Afternoon...Partly cloudy with winds from the south west at 12 mph.
Evening...Partly cloudy with winds from the south west at 12 mph.
Overnight...Partly cloudy with winds from the south west at 12 mph.
Original Encoded TAF:
Dated: 0339 PM EDT MON NOV 06 2006
2006/11/06 19:39
CYKF 061939Z 062005 21010KT P6SM SCT050=




Powered by Angler Guide.com
Copyright 2007, all rights reserved.